Time;durP1;ratioP1;P1;durP2;ratioP2;P2;SDS_P1;SDS_P2;PMS_P1;PMS_P2;Temp;Humidity;BMP_temperature;BMP_pressure;BME280_temperature;BME280_humidity;BME280_pressure;Samples;Min_cycle;Max_cycle;Signal;HPM_P1;HPM_P2
2022/11/13 00:00:30;;;;;;;35.80;29.27;;;;;;;;;;1820803;78;26682;-67
2022/11/13 00:02:58;;;;;;;38.17;30.00;;;;;;;;;;1764017;78;26684;-67
2022/11/13 00:05:27;;;;;;;39.93;31.17;;;;;;;;;;1821142;78;26282;-67
2022/11/13 00:07:55;;;;;;;38.67;31.13;;;;;;;;;;1819764;79;26278;-67
2022/11/13 00:10:24;;;;;;;39.73;30.73;;;;;;;;;;1820931;78;26274;-67
2022/11/13 00:12:53;;;;;;;37.80;32.03;;;;;;;;;;1787931;78;26771;-67
2022/11/13 00:15:21;;;;;;;42.40;33.70;;;;;;;;;;1821134;78;26314;-67
2022/11/13 00:17:49;;;;;;;44.33;34.83;;;;;;;;;;1818468;77;26267;-67
2022/11/13 00:20:18;;;;;;;41.57;32.23;;;;;;;;;;1793954;77;26298;-67
2022/11/13 00:22:47;;;;;;;43.93;34.17;;;;;;;;;;1788005;78;26620;-66
2022/11/13 00:25:15;;;;;;;47.37;35.10;;;;;;;;;;1820872;78;26309;-67
2022/11/13 00:27:44;;;;;;;41.37;33.00;;;;;;;;;;1843058;78;26244;-67
2022/11/13 00:30:13;;;;;;;45.80;34.80;;;;;;;;;;1787391;79;26341;-67
2022/11/13 00:32:41;;;;;;;45.40;35.13;;;;;;;;;;1821761;79;26290;-67
2022/11/13 00:35:09;;;;;;;47.33;35.73;;;;;;;;;;1820865;77;26662;-67
2022/11/13 00:37:38;;;;;;;46.77;36.10;;;;;;;;;;1844420;78;26270;-67
2022/11/13 00:40:07;;;;;;;46.97;37.03;;;;;;;;;;1821651;78;26392;-66
2022/11/13 00:42:36;;;;;;;49.87;36.43;;;;;;;;;;1859436;77;26786;-67
2022/11/13 00:45:07;;;;;;;51.13;37.77;;;;;;;;;;1820995;77;26341;-67
2022/11/13 00:47:36;;;;;;;49.27;35.90;;;;;;;;;;1860450;77;26239;-67
2022/11/13 00:50:05;;;;;;;51.43;38.03;;;;;;;;;;1819754;78;26277;-67
2022/11/13 00:52:34;;;;;;;52.37;37.97;;;;;;;;;;1821067;78;26360;-67
2022/11/13 00:55:02;;;;;;;52.47;37.07;;;;;;;;;;1787724;78;26345;-67
2022/11/13 00:57:30;;;;;;;50.60;37.83;;;;;;;;;;1790596;78;26262;-67
2022/11/13 00:59:59;;;;;;;50.77;37.93;;;;;;;;;;1814370;78;26794;-67
2022/11/13 01:02:27;;;;;;;52.67;38.77;;;;;;;;;;1820637;78;26328;-67
2022/11/13 01:04:55;;;;;;;56.33;38.37;;;;;;;;;;1763847;78;26365;-67
2022/11/13 01:07:24;;;;;;;54.37;39.47;;;;;;;;;;1762785;79;26299;-67
2022/11/13 01:09:52;;;;;;;47.40;37.03;;;;;;;;;;1788856;78;26318;-67
2022/11/13 01:12:20;;;;;;;50.63;37.63;;;;;;;;;;1853641;77;27054;-67
2022/11/13 01:14:49;;;;;;;51.80;38.57;;;;;;;;;;1851951;77;26440;-67
2022/11/13 01:17:17;;;;;;;57.13;39.07;;;;;;;;;;1851776;77;27288;-67
2022/11/13 01:19:46;;;;;;;53.03;37.43;;;;;;;;;;1788239;78;26791;-67
2022/11/13 01:22:15;;;;;;;53.63;37.97;;;;;;;;;;1820885;78;27414;-67
2022/11/13 01:24:44;;;;;;;53.07;37.70;;;;;;;;;;1859872;77;26282;-67
2022/11/13 01:27:14;;;;;;;50.80;37.83;;;;;;;;;;1820907;78;27469;-67
2022/11/13 01:29:42;;;;;;;55.27;38.57;;;;;;;;;;1858481;77;26271;-67
2022/11/13 01:32:11;;;;;;;54.50;37.97;;;;;;;;;;1821411;78;26801;-67
2022/11/13 01:34:39;;;;;;;53.03;37.10;;;;;;;;;;1809611;79;26286;-67
2022/11/13 01:37:07;;;;;;;55.30;38.03;;;;;;;;;;1765236;78;26303;-67
2022/11/13 01:39:36;;;;;;;49.27;36.80;;;;;;;;;;1852078;77;26213;-67
2022/11/13 01:42:04;;;;;;;51.50;37.03;;;;;;;;;;1851563;77;26308;-67
2022/11/13 01:44:46;;;;;;;55.10;38.27;;;;;;;;;;1853265;77;26310;-67
2022/11/13 01:47:15;;;;;;;52.53;37.77;;;;;;;;;;1852624;77;26346;-67
2022/11/13 01:49:44;;;;;;;54.63;38.60;;;;;;;;;;1853913;77;26881;-67
2022/11/13 01:52:14;;;;;;;52.20;37.70;;;;;;;;;;1853479;77;26725;-67
2022/11/13 01:54:44;;;;;;;50.93;37.77;;;;;;;;;;1851881;77;26603;-67
2022/11/13 01:57:13;;;;;;;54.60;38.40;;;;;;;;;;1851685;77;26337;-67
2022/11/13 01:59:43;;;;;;;56.57;38.50;;;;;;;;;;1851802;77;26577;-67
2022/11/13 02:02:11;;;;;;;52.37;37.77;;;;;;;;;;1851644;77;26717;-67
2022/11/13 02:04:40;;;;;;;50.67;37.73;;;;;;;;;;1852053;77;26392;-67
2022/11/13 02:07:09;;;;;;;55.40;38.73;;;;;;;;;;1791223;78;26305;-67
2022/11/13 02:09:39;;;;;;;54.50;37.70;;;;;;;;;;1845881;78;26294;-67
2022/11/13 02:12:09;;;;;;;61.47;40.03;;;;;;;;;;1852053;77;26269;-67
2022/11/13 02:14:40;;;;;;;57.77;40.57;;;;;;;;;;1851912;77;26266;-67
2022/11/13 02:17:09;;;;;;;55.03;38.37;;;;;;;;;;1853732;77;26231;-67
2022/11/13 02:19:39;;;;;;;59.97;38.93;;;;;;;;;;1852911;77;26348;-66
2022/11/13 02:22:09;;;;;;;57.53;38.53;;;;;;;;;;1851736;77;27359;-67
2022/11/13 02:24:38;;;;;;;55.57;38.13;;;;;;;;;;1818151;77;26350;-67
2022/11/13 02:27:08;;;;;;;56.90;39.07;;;;;;;;;;1851642;77;26274;-67
2022/11/13 02:29:36;;;;;;;59.05;39.40;;;;;;;;;;1851419;77;26338;-67
2022/11/13 02:32:05;;;;;;;57.83;38.43;;;;;;;;;;1765112;78;26582;-67
2022/11/13 02:34:33;;;;;;;58.67;37.63;;;;;;;;;;1853956;77;26260;-67
2022/11/13 02:37:02;;;;;;;58.37;38.97;;;;;;;;;;1823053;78;26247;-67
2022/11/13 02:39:30;;;;;;;59.90;38.53;;;;;;;;;;1843075;78;26250;-66
2022/11/13 02:41:58;;;;;;;53.87;37.83;;;;;;;;;;1819827;77;26292;-67
2022/11/13 02:44:27;;;;;;;55.40;37.83;;;;;;;;;;1788932;78;26338;-66
2022/11/13 02:46:55;;;;;;;60.57;38.63;;;;;;;;;;1821061;78;26310;-67
2022/11/13 02:49:25;;;;;;;57.63;38.37;;;;;;;;;;1851706;77;26315;-67
2022/11/13 02:51:53;;;;;;;57.00;37.73;;;;;;;;;;1818410;77;26786;-66
2022/11/13 02:54:21;;;;;;;55.30;37.63;;;;;;;;;;1765394;78;26365;-67
2022/11/13 02:56:50;;;;;;;56.33;38.10;;;;;;;;;;1813159;78;26280;-66
2022/11/13 02:59:18;;;;;;;56.23;38.20;;;;;;;;;;1851908;77;26270;-67
2022/11/13 03:01:46;;;;;;;57.67;38.13;;;;;;;;;;1851170;77;26349;-67
2022/11/13 03:04:15;;;;;;;58.90;38.87;;;;;;;;;;1851835;77;26377;-67
2022/11/13 03:06:43;;;;;;;57.57;37.57;;;;;;;;;;1851564;77;26533;-67
2022/11/13 03:09:11;;;;;;;60.67;38.80;;;;;;;;;;1818238;77;26835;-66
2022/11/13 03:11:40;;;;;;;59.17;38.70;;;;;;;;;;1788031;78;26309;-67
2022/11/13 03:14:08;;;;;;;55.07;38.27;;;;;;;;;;1821117;78;26745;-67
2022/11/13 03:16:37;;;;;;;52.90;37.17;;;;;;;;;;1787746;78;26274;-67
2022/11/13 03:19:05;;;;;;;58.33;38.73;;;;;;;;;;1821031;78;26374;-67
2022/11/13 03:21:34;;;;;;;58.73;38.03;;;;;;;;;;1841077;78;26361;-67
2022/11/13 03:24:02;;;;;;;58.20;38.40;;;;;;;;;;1819583;79;26848;-67
2022/11/13 03:26:30;;;;;;;63.43;39.90;;;;;;;;;;1822403;78;26722;-67
2022/11/13 03:28:59;;;;;;;54.17;38.47;;;;;;;;;;1787608;78;26378;-67
2022/11/13 03:31:27;;;;;;;53.10;36.97;;;;;;;;;;1820952;78;26284;-67
2022/11/13 03:33:56;;;;;;;55.25;37.25;;;;;;;;;;1819772;79;26320;-67
2022/11/13 03:36:25;;;;;;;54.23;36.53;;;;;;;;;;1813000;78;25136;-67
2022/11/13 03:38:53;;;;;;;53.37;37.17;;;;;;;;;;1821115;78;26729;-67
2022/11/13 03:41:22;;;;;;;49.17;36.30;;;;;;;;;;1788095;78;26310;-67
2022/11/13 03:43:50;;;;;;;50.63;36.40;;;;;;;;;;1787191;79;26561;-67
2022/11/13 03:46:18;;;;;;;55.90;38.33;;;;;;;;;;1788617;78;27392;-67
2022/11/13 03:48:47;;;;;;;55.57;36.07;;;;;;;;;;1789045;78;26894;-67
2022/11/13 03:51:16;;;;;;;56.63;37.13;;;;;;;;;;1788737;78;26340;-67
2022/11/13 03:53:45;;;;;;;55.53;37.33;;;;;;;;;;1852018;77;26724;-67
2022/11/13 03:56:13;;;;;;;53.73;36.87;;;;;;;;;;1819928;77;26819;-67
2022/11/13 03:58:41;;;;;;;52.37;35.93;;;;;;;;;;1852278;77;26332;-67
2022/11/13 04:01:10;;;;;;;53.93;36.77;;;;;;;;;;1787375;78;27222;-67
2022/11/13 04:03:39;;;;;;;51.97;37.83;;;;;;;;;;1821299;78;26286;-67
2022/11/13 04:06:08;;;;;;;53.70;37.13;;;;;;;;;;1819491;79;26604;-67
2022/11/13 04:08:36;;;;;;;55.80;36.77;;;;;;;;;;1822297;78;26282;-67
2022/11/13 04:11:08;;;;;;;55.77;36.33;;;;;;;;;;1858170;77;26335;-67
2022/11/13 04:13:36;;;;;;;55.87;36.23;;;;;;;;;;1823046;78;26244;-67
2022/11/13 04:16:05;;;;;;;57.50;36.47;;;;;;;;;;1859895;77;26267;-67
2022/11/13 04:18:34;;;;;;;57.57;36.40;;;;;;;;;;1820981;78;26907;-67
2022/11/13 04:21:04;;;;;;;58.23;35.43;;;;;;;;;;1826222;77;26666;-67
2022/11/13 04:23:32;;;;;;;52.43;35.07;;;;;;;;;;1820636;78;26781;-67
2022/11/13 04:26:01;;;;;;;51.73;33.97;;;;;;;;;;1820943;78;26709;-67
2022/11/13 04:28:29;;;;;;;47.30;33.07;;;;;;;;;;1858445;77;26349;-67
2022/11/13 04:30:57;;;;;;;54.77;34.10;;;;;;;;;;1787540;79;26286;-67
2022/11/13 04:33:26;;;;;;;52.67;33.63;;;;;;;;;;1821398;78;26282;-67
2022/11/13 04:35:54;;;;;;;48.83;33.20;;;;;;;;;;1858288;77;26743;-67
2022/11/13 04:38:22;;;;;;;51.60;34.23;;;;;;;;;;1821351;78;26289;-67
2022/11/13 04:42:47;;;;;;;54.37;35.13;;;;;;;;;;1787748;78;26787;-67
2022/11/13 04:43:21;;;;;;;55.03;35.20;;;;;;;;;;1809747;78;26835;-67
2022/11/13 04:45:52;;;;;;;51.57;33.87;;;;;;;;;;1788892;78;26314;-67
2022/11/13 04:48:21;;;;;;;52.03;33.73;;;;;;;;;;1821007;78;26266;-67
2022/11/13 04:50:50;;;;;;;49.57;33.27;;;;;;;;;;1818090;77;26310;-67
2022/11/13 04:53:20;;;;;;;55.50;34.30;;;;;;;;;;1818617;77;26344;-67
2022/11/13 04:55:48;;;;;;;48.50;33.63;;;;;;;;;;1818433;77;26777;-67
2022/11/13 04:58:16;;;;;;;51.40;33.80;;;;;;;;;;1818977;77;26258;-67
2022/11/13 05:00:45;;;;;;;49.53;33.03;;;;;;;;;;1840120;77;616150;-67
2022/11/13 05:03:14;;;;;;;54.53;34.10;;;;;;;;;;1803476;79;26392;-67
2022/11/13 05:05:42;;;;;;;53.43;33.57;;;;;;;;;;1781089;79;26689;-67
2022/11/13 05:08:11;;;;;;;53.00;32.57;;;;;;;;;;1809162;79;26316;-67
2022/11/13 05:10:40;;;;;;;47.93;31.77;;;;;;;;;;1807842;79;27423;-67
2022/11/13 05:13:08;;;;;;;50.10;33.23;;;;;;;;;;1809448;79;26283;-67
2022/11/13 05:15:36;;;;;;;44.07;31.53;;;;;;;;;;1774001;79;26806;-67
2022/11/13 05:18:05;;;;;;;44.33;30.23;;;;;;;;;;1809351;79;26269;-67
2022/11/13 05:20:33;;;;;;;46.93;31.57;;;;;;;;;;1778126;79;26275;-67
2022/11/13 05:23:02;;;;;;;45.73;30.13;;;;;;;;;;1809418;79;26278;-67
2022/11/13 05:25:30;;;;;;;45.13;31.20;;;;;;;;;;1842850;78;26333;-67
2022/11/13 05:27:59;;;;;;;44.07;30.37;;;;;;;;;;1809509;79;26555;-67
2022/11/13 05:30:27;;;;;;;44.93;30.27;;;;;;;;;;1843294;78;26263;-67
2022/11/13 05:32:55;;;;;;;41.80;30.20;;;;;;;;;;1809575;79;26231;-67
2022/11/13 05:35:24;;;;;;;42.93;29.87;;;;;;;;;;1843458;78;21649;-67
2022/11/13 05:37:52;;;;;;;44.53;30.53;;;;;;;;;;1778672;79;26278;-66
2022/11/13 05:40:20;;;;;;;46.90;30.40;;;;;;;;;;1798330;78;26423;-67
2022/11/13 05:42:49;;;;;;;44.10;29.67;;;;;;;;;;1809525;79;26307;-67
2022/11/13 05:45:17;;;;;;;45.43;29.70;;;;;;;;;;1778574;79;26790;-67
2022/11/13 05:47:45;;;;;;;38.63;28.50;;;;;;;;;;1809497;79;26302;-67
2022/11/13 05:50:14;;;;;;;41.40;28.83;;;;;;;;;;1839576;78;26736;-66
2022/11/13 05:52:43;;;;;;;43.63;29.47;;;;;;;;;;1839688;78;26329;-66
2022/11/13 05:55:12;;;;;;;42.03;29.63;;;;;;;;;;1839428;78;26299;-67
2022/11/13 05:57:40;;;;;;;45.53;29.87;;;;;;;;;;1778749;79;26369;-66
2022/11/13 06:00:10;;;;;;;39.37;28.10;;;;;;;;;;1809368;79;26568;-67
2022/11/13 06:02:38;;;;;;;40.73;29.20;;;;;;;;;;1809815;79;26260;-67
2022/11/13 06:05:08;;;;;;;39.40;28.83;;;;;;;;;;1839597;78;26263;-67
2022/11/13 06:07:36;;;;;;;42.53;28.83;;;;;;;;;;1840268;78;26804;-66
2022/11/13 06:10:06;;;;;;;43.40;29.57;;;;;;;;;;1751644;79;26295;-66
2022/11/13 06:12:34;;;;;;;47.03;29.47;;;;;;;;;;1839717;78;26713;-67
2022/11/13 06:15:03;;;;;;;41.50;28.60;;;;;;;;;;1774755;79;26501;-66
2022/11/13 06:17:31;;;;;;;42.60;29.77;;;;;;;;;;1809300;79;26780;-66
2022/11/13 06:19:59;;;;;;;44.57;28.27;;;;;;;;;;1842918;78;26302;-67
2022/11/13 06:22:28;;;;;;;42.83;29.10;;;;;;;;;;1809414;79;26338;-67
2022/11/13 06:24:56;;;;;;;41.03;28.33;;;;;;;;;;1792855;79;27454;-67
2022/11/13 06:27:25;;;;;;;38.73;27.37;;;;;;;;;;1786959;78;27193;-67
2022/11/13 06:29:53;;;;;;;44.00;29.20;;;;;;;;;;1843177;78;27088;-66
2022/11/13 06:32:22;;;;;;;42.67;27.83;;;;;;;;;;1843016;78;26299;-67
2022/11/13 06:34:50;;;;;;;39.10;26.97;;;;;;;;;;1842991;78;26333;-66
2022/11/13 06:37:19;;;;;;;40.70;26.30;;;;;;;;;;1775256;79;26372;-67
2022/11/13 06:39:47;;;;;;;40.87;26.90;;;;;;;;;;1798029;78;26781;-67
2022/11/13 06:42:15;;;;;;;39.77;26.37;;;;;;;;;;1797688;78;26327;-67
2022/11/13 06:44:44;;;;;;;40.00;27.00;;;;;;;;;;1778374;79;26271;-67
2022/11/13 06:47:12;;;;;;;41.57;26.83;;;;;;;;;;1811187;77;26864;-67
2022/11/13 06:49:41;;;;;;;39.23;26.47;;;;;;;;;;1843804;78;26349;-67
2022/11/13 06:52:09;;;;;;;38.73;26.23;;;;;;;;;;1780023;79;26375;-67
2022/11/13 06:54:38;;;;;;;39.83;26.63;;;;;;;;;;1839645;78;27185;-66
2022/11/13 06:57:07;;;;;;;33.90;25.10;;;;;;;;;;1841259;78;26247;-67
2022/11/13 06:59:36;;;;;;;37.77;25.37;;;;;;;;;;1839774;78;26287;-66
2022/11/13 07:02:04;;;;;;;33.30;24.87;;;;;;;;;;1839056;78;27428;-66
2022/11/13 07:04:34;;;;;;;35.13;24.33;;;;;;;;;;1839391;78;26276;-67
2022/11/13 07:07:02;;;;;;;35.67;23.50;;;;;;;;;;1839102;78;26370;-67
2022/11/13 07:09:31;;;;;;;34.40;22.97;;;;;;;;;;1778757;79;26325;-66
2022/11/13 07:12:00;;;;;;;38.00;24.63;;;;;;;;;;1809346;79;26263;-66
2022/11/13 07:14:28;;;;;;;32.87;22.47;;;;;;;;;;1808982;78;26341;-68
2022/11/13 07:16:56;;;;;;;35.57;23.87;;;;;;;;;;1808736;78;26260;-66
2022/11/13 07:19:25;;;;;;;33.93;23.90;;;;;;;;;;1774666;79;26318;-66
2022/11/13 07:21:54;;;;;;;30.57;22.10;;;;;;;;;;1809404;79;26298;-66
2022/11/13 07:24:22;;;;;;;35.30;24.07;;;;;;;;;;1842970;78;26283;-66
2022/11/13 07:26:51;;;;;;;36.57;23.80;;;;;;;;;;1778092;79;26282;-66
2022/11/13 07:29:19;;;;;;;34.40;21.67;;;;;;;;;;1809496;79;26385;-66
2022/11/13 07:31:48;;;;;;;34.37;22.07;;;;;;;;;;1773696;79;26384;-68
2022/11/13 07:34:16;;;;;;;31.97;22.53;;;;;;;;;;1809602;79;26285;-66
2022/11/13 07:36:44;;;;;;;30.37;22.10;;;;;;;;;;1778530;79;26364;-66
2022/11/13 07:39:12;;;;;;;36.87;22.37;;;;;;;;;;1809457;79;26441;-66
2022/11/13 07:41:41;;;;;;;37.27;22.83;;;;;;;;;;1809618;79;26370;-66
2022/11/13 07:44:09;;;;;;;35.87;22.83;;;;;;;;;;1778561;79;26336;-66
2022/11/13 07:46:37;;;;;;;36.03;22.00;;;;;;;;;;1779985;78;27445;-66
2022/11/13 07:49:06;;;;;;;39.93;24.13;;;;;;;;;;1839412;78;26276;-66
2022/11/13 07:51:34;;;;;;;34.57;21.83;;;;;;;;;;1808931;78;26272;-66
2022/11/13 07:54:03;;;;;;;36.93;22.20;;;;;;;;;;1839719;78;26561;-66
2022/11/13 07:56:31;;;;;;;39.23;21.87;;;;;;;;;;1778249;79;26352;-66
2022/11/13 07:59:00;;;;;;;34.30;20.77;;;;;;;;;;1753884;79;26585;-66
2022/11/13 08:01:28;;;;;;;36.73;21.47;;;;;;;;;;1826040;78;26284;-66
2022/11/13 08:03:57;;;;;;;39.37;22.03;;;;;;;;;;1809359;79;26295;-66
2022/11/13 08:06:26;;;;;;;33.07;21.30;;;;;;;;;;1778624;79;26295;-66
2022/11/13 08:08:55;;;;;;;33.90;20.90;;;;;;;;;;1754228;79;26312;-66
2022/11/13 08:11:23;;;;;;;34.40;20.60;;;;;;;;;;1809631;79;26278;-66
2022/11/13 08:13:52;;;;;;;32.37;21.70;;;;;;;;;;1774650;79;26336;-67
2022/11/13 08:16:22;;;;;;;33.47;20.07;;;;;;;;;;1809876;79;26984;-66
2022/11/13 08:18:51;;;;;;;38.00;22.13;;;;;;;;;;1778846;79;26360;-66
2022/11/13 08:21:20;;;;;;;36.93;21.70;;;;;;;;;;1809212;79;26296;-66
2022/11/13 08:23:49;;;;;;;35.67;21.87;;;;;;;;;;1803401;79;26329;-66
2022/11/13 08:26:18;;;;;;;33.30;21.53;;;;;;;;;;1778524;79;26696;-66
2022/11/13 08:28:46;;;;;;;36.57;20.87;;;;;;;;;;1809486;79;26283;-67
2022/11/13 08:31:16;;;;;;;34.83;21.03;;;;;;;;;;1807689;79;26307;-68
2022/11/13 08:33:44;;;;;;;32.47;21.00;;;;;;;;;;1809619;79;26850;-67
2022/11/13 08:36:13;;;;;;;31.73;20.60;;;;;;;;;;1842927;78;26505;-67
2022/11/13 08:38:41;;;;;;;31.27;21.00;;;;;;;;;;1808101;79;26263;-67
2022/11/13 08:41:10;;;;;;;35.73;20.60;;;;;;;;;;1809339;79;26404;-66
2022/11/13 08:43:38;;;;;;;35.07;21.53;;;;;;;;;;1843410;78;26279;-66
2022/11/13 08:46:06;;;;;;;30.87;19.87;;;;;;;;;;1809706;79;26312;-67
2022/11/13 08:48:36;;;;;;;31.23;19.70;;;;;;;;;;1793216;79;26393;-67
2022/11/13 08:51:05;;;;;;;32.97;20.60;;;;;;;;;;1826639;78;26260;-66
2022/11/13 08:53:35;;;;;;;27.87;19.57;;;;;;;;;;1808995;78;26362;-66
2022/11/13 08:56:04;;;;;;;31.73;20.83;;;;;;;;;;1840141;78;26717;-65
2022/11/13 08:58:32;;;;;;;30.90;20.47;;;;;;;;;;1840099;78;26274;-66
2022/11/13 09:01:01;;;;;;;27.47;19.00;;;;;;;;;;1751220;79;26568;-66
2022/11/13 09:03:30;;;;;;;27.10;20.20;;;;;;;;;;1780230;79;26596;-65
2022/11/13 09:05:58;;;;;;;26.37;19.20;;;;;;;;;;1809714;79;26264;-66
2022/11/13 09:08:27;;;;;;;25.97;18.67;;;;;;;;;;1780426;79;26502;-65
2022/11/13 09:10:55;;;;;;;30.00;18.70;;;;;;;;;;1780317;79;26293;-66
2022/11/13 09:13:23;;;;;;;27.67;19.07;;;;;;;;;;1809634;79;26311;-66
2022/11/13 09:18:53;;;;;;;30.67;20.83;;;;;;;;;;2048707;69;27754;-68
2022/11/13 09:21:22;;;;;;;27.43;19.03;;;;;;;;;;1978264;72;26311;-68
2022/11/13 09:23:50;;;;;;;25.20;19.53;;;;;;;;;;1944237;72;26483;-68
2022/11/13 09:26:18;;;;;;;30.63;20.20;;;;;;;;;;1877691;74;26274;-68
2022/11/13 09:28:47;;;;;;;27.10;19.53;;;;;;;;;;1916152;73;26274;-71
2022/11/13 09:31:16;;;;;;;26.80;19.77;;;;;;;;;;1918529;73;26282;-68
2022/11/13 09:33:44;;;;;;;28.43;19.63;;;;;;;;;;1903057;74;26377;-68
2022/11/13 09:36:13;;;;;;;26.63;19.70;;;;;;;;;;1927695;73;26752;-70
2022/11/13 09:38:42;;;;;;;26.03;19.53;;;;;;;;;;1922465;73;26868;-70
2022/11/13 09:41:11;;;;;;;26.90;19.80;;;;;;;;;;1918676;74;26378;-70
2022/11/13 09:43:41;;;;;;;25.60;18.30;;;;;;;;;;1881234;74;26285;-69
2022/11/13 09:46:12;;;;;;;26.77;18.97;;;;;;;;;;1886426;74;26301;-71
2022/11/13 09:48:42;;;;;;;26.07;18.17;;;;;;;;;;1894333;75;26279;-68
2022/11/13 09:51:12;;;;;;;23.63;18.63;;;;;;;;;;1885823;74;26397;-71
2022/11/13 09:53:41;;;;;;;24.40;18.47;;;;;;;;;;1871550;75;26282;-70
2022/11/13 09:56:17;;;;;;;21.43;17.77;;;;;;;;;;1937268;73;26227;-70
2022/11/13 09:58:47;;;;;;;22.77;18.50;;;;;;;;;;1928009;73;26214;-71
2022/11/13 10:01:18;;;;;;;22.73;18.13;;;;;;;;;;1905977;73;26648;-75
2022/11/13 10:03:49;;;;;;;22.13;17.00;;;;;;;;;;1846945;76;26268;-69
2022/11/13 10:06:18;;;;;;;19.60;17.47;;;;;;;;;;1893018;74;26358;-70
2022/11/13 10:08:49;;;;;;;19.53;17.53;;;;;;;;;;1889199;74;26255;-76
2022/11/13 10:11:20;;;;;;;18.57;16.23;;;;;;;;;;1878985;73;26773;-69
2022/11/13 10:13:49;;;;;;;20.27;16.50;;;;;;;;;;1892069;74;26803;-70
2022/11/13 10:16:20;;;;;;;18.27;16.03;;;;;;;;;;1919106;73;26336;-70
2022/11/13 10:18:50;;;;;;;19.57;16.50;;;;;;;;;;1933733;72;26591;-70
2022/11/13 10:21:20;;;;;;;18.00;15.90;;;;;;;;;;1934814;74;26728;-69
2022/11/13 10:23:52;;;;;;;17.87;15.77;;;;;;;;;;1934048;74;26268;-71
2022/11/13 10:26:21;;;;;;;18.83;15.90;;;;;;;;;;1934710;74;26573;-69
2022/11/13 10:28:51;;;;;;;19.80;16.10;;;;;;;;;;1934374;74;26229;-69
2022/11/13 10:31:20;;;;;;;17.90;15.60;;;;;;;;;;1933834;74;26230;-69
2022/11/13 10:33:50;;;;;;;19.73;15.00;;;;;;;;;;1934387;74;26311;-67
2022/11/13 10:36:20;;;;;;;19.53;15.87;;;;;;;;;;1859721;77;26328;-68
2022/11/13 10:38:50;;;;;;;16.23;14.27;;;;;;;;;;1871002;75;26270;-68
2022/11/13 10:41:19;;;;;;;14.97;13.37;;;;;;;;;;1893281;74;26784;-68
2022/11/13 10:43:51;;;;;;;15.57;13.97;;;;;;;;;;1911257;74;27306;-68
2022/11/13 10:46:21;;;;;;;15.70;13.97;;;;;;;;;;1934076;74;26255;-68
2022/11/13 10:48:49;;;;;;;15.07;13.57;;;;;;;;;;1859961;77;24202;-67
2022/11/13 10:51:22;;;;;;;14.10;12.70;;;;;;;;;;1893482;75;24700;-68
2022/11/13 10:53:51;;;;;;;14.20;12.70;;;;;;;;;;1934293;74;24183;-68
2022/11/13 10:56:24;;;;;;;13.93;12.53;;;;;;;;;;1859882;77;24905;-68
2022/11/13 10:59:07;;;;;;;13.50;12.30;;;;;;;;;;1933965;74;26784;-68
2022/11/13 11:01:35;;;;;;;14.67;13.17;;;;;;;;;;1933900;74;26236;-68
2022/11/13 11:04:04;;;;;;;13.37;11.97;;;;;;;;;;1859698;77;24198;-70
2022/11/13 11:06:34;;;;;;;13.60;12.30;;;;;;;;;;1934002;74;26792;-67
2022/11/13 11:09:10;;;;;;;14.37;12.87;;;;;;;;;;1859532;77;24202;-70
2022/11/13 11:14:26;;;;;;;16.23;12.90;;;;;;;;;;1934178;74;26820;-71
2022/11/13 11:16:56;;;;;;;13.90;11.87;;;;;;;;;;1910450;74;26229;-71
2022/11/13 11:19:27;;;;;;;14.97;12.00;;;;;;;;;;1935424;73;26280;-70
2022/11/13 11:21:57;;;;;;;13.70;12.30;;;;;;;;;;1859650;77;26674;-71
2022/11/13 11:24:27;;;;;;;14.00;12.57;;;;;;;;;;1933852;74;26639;-70
2022/11/13 11:26:57;;;;;;;13.33;12.13;;;;;;;;;;1934011;74;26659;-71
2022/11/13 11:29:27;;;;;;;12.40;11.10;;;;;;;;;;1859778;77;26336;-71
2022/11/13 11:31:57;;;;;;;13.83;12.17;;;;;;;;;;1861506;77;24213;-72
2022/11/13 11:34:27;;;;;;;12.77;11.37;;;;;;;;;;1934163;74;26326;-71
2022/11/13 11:36:58;;;;;;;14.43;11.23;;;;;;;;;;1933794;74;26246;-71
2022/11/13 11:39:28;;;;;;;12.57;11.10;;;;;;;;;;1934115;74;26674;-71
2022/11/13 11:41:59;;;;;;;12.97;11.67;;;;;;;;;;1859527;77;26286;-72
2022/11/13 11:44:29;;;;;;;12.50;11.30;;;;;;;;;;1893569;75;27399;-71
2022/11/13 11:46:57;;;;;;;13.77;11.37;;;;;;;;;;1934120;74;26230;-70
2022/11/13 11:49:26;;;;;;;11.77;10.60;;;;;;;;;;1859820;77;24205;-71
2022/11/13 11:51:56;;;;;;;11.40;10.30;;;;;;;;;;1893469;75;26248;-70
2022/11/13 11:54:28;;;;;;;11.03;9.97;;;;;;;;;;1934181;74;24168;-71
2022/11/13 11:56:58;;;;;;;13.37;10.33;;;;;;;;;;1933822;74;26246;-71
2022/11/13 11:59:33;;;;;;;10.63;9.53;;;;;;;;;;1934193;74;26305;-71
2022/11/13 12:02:04;;;;;;;10.97;9.67;;;;;;;;;;1933711;74;24183;-71
2022/11/13 12:04:37;;;;;;;10.27;9.37;;;;;;;;;;1931927;74;24238;-71
2022/11/13 12:07:08;;;;;;;9.90;8.90;;;;;;;;;;1935590;74;24606;-70
2022/11/13 12:09:38;;;;;;;12.47;8.93;;;;;;;;;;1933588;74;26747;-71
2022/11/13 12:12:08;;;;;;;10.63;8.73;;;;;;;;;;1934396;74;26295;-71
2022/11/13 12:14:40;;;;;;;9.10;7.57;;;;;;;;;;1837352;77;26338;-71
2022/11/13 12:17:12;;;;;;;9.40;8.33;;;;;;;;;;1875210;76;24161;-71
2022/11/13 12:19:42;;;;;;;10.30;9.20;;;;;;;;;;1862709;76;25360;-70
2022/11/13 12:22:12;;;;;;;14.10;9.63;;;;;;;;;;1862398;77;26566;-71
2022/11/13 12:24:52;;;;;;;10.73;9.73;;;;;;;;;;1862479;77;24482;-71
2022/11/13 12:27:24;;;;;;;11.17;9.97;;;;;;;;;;1862460;77;24255;-70
2022/11/13 12:29:56;;;;;;;12.70;11.50;;;;;;;;;;1862795;77;24267;-70
2022/11/13 12:32:35;;;;;;;12.47;10.37;;;;;;;;;;1934211;74;24234;-70
2022/11/13 12:35:05;;;;;;;13.07;11.00;;;;;;;;;;1933637;74;24697;-70
2022/11/13 12:37:35;;;;;;;13.47;11.83;;;;;;;;;;1859916;77;26275;-70
2022/11/13 12:40:05;;;;;;;10.80;9.77;;;;;;;;;;1893718;75;26291;-70
2022/11/13 12:42:35;;;;;;;10.63;9.67;;;;;;;;;;1875662;76;24221;-71
2022/11/13 12:45:07;;;;;;;10.80;9.83;;;;;;;;;;1862697;77;26838;-70
2022/11/13 12:47:36;;;;;;;11.63;9.80;;;;;;;;;;1862732;77;24460;-71
2022/11/13 12:50:05;;;;;;;10.53;9.43;;;;;;;;;;1862656;77;26318;-71
2022/11/13 12:52:34;;;;;;;10.17;9.13;;;;;;;;;;1815943;77;26869;-70
2022/11/13 12:55:07;;;;;;;10.23;9.23;;;;;;;;;;1840802;77;24197;-70
2022/11/13 12:57:37;;;;;;;11.77;8.70;;;;;;;;;;1863438;77;26252;-71
2022/11/13 13:00:21;;;;;;;9.50;8.50;;;;;;;;;;1861446;77;24184;-71
2022/11/13 13:02:53;;;;;;;8.90;7.97;;;;;;;;;;1863300;77;26292;-70
2022/11/13 13:05:25;;;;;;;8.77;7.63;;;;;;;;;;1862812;77;25290;-70
2022/11/13 13:08:11;;;;;;;8.60;7.23;;;;;;;;;;1893800;75;24567;-69
2022/11/13 13:10:44;;;;;;;6.87;6.27;;;;;;;;;;1893683;75;26397;-70
2022/11/13 13:13:14;;;;;;;8.50;6.37;;;;;;;;;;1894108;75;24266;-69
2022/11/13 13:15:43;;;;;;;6.87;6.33;;;;;;;;;;1894970;75;24192;-70
2022/11/13 13:18:12;;;;;;;8.70;6.77;;;;;;;;;;1875768;76;24208;-71
2022/11/13 13:20:42;;;;;;;7.33;6.63;;;;;;;;;;1863699;75;26572;-70
2022/11/13 13:23:14;;;;;;;8.47;6.63;;;;;;;;;;1863850;77;24193;-71
2022/11/13 13:25:43;;;;;;;6.90;6.30;;;;;;;;;;1863521;77;24235;-71
2022/11/13 13:28:20;;;;;;;7.00;6.10;;;;;;;;;;1841476;77;24174;-71
2022/11/13 13:30:51;;;;;;;7.97;5.50;;;;;;;;;;1863452;77;24260;-70
2022/11/13 13:33:22;;;;;;;6.37;5.77;;;;;;;;;;1863548;77;26788;-71
2022/11/13 13:35:53;;;;;;;6.73;6.07;;;;;;;;;;1863339;77;24177;-70
2022/11/13 13:38:23;;;;;;;6.13;5.60;;;;;;;;;;1863697;77;24204;-70
2022/11/13 13:40:58;;;;;;;6.30;5.30;;;;;;;;;;1863494;75;24185;-70
2022/11/13 13:43:33;;;;;;;6.43;5.27;;;;;;;;;;1862384;77;24271;-70
2022/11/13 13:46:04;;;;;;;7.83;5.33;;;;;;;;;;1862532;77;24173;-71
2022/11/13 13:48:34;;;;;;;7.20;5.20;;;;;;;;;;1862659;77;24194;-72
2022/11/13 13:51:04;;;;;;;6.60;5.30;;;;;;;;;;1862274;77;26737;-72
2022/11/13 13:53:35;;;;;;;5.60;5.10;;;;;;;;;;1862911;77;26284;-72
2022/11/13 13:56:04;;;;;;;7.17;4.93;;;;;;;;;;1862571;77;24208;-72
2022/11/13 13:58:35;;;;;;;5.10;4.60;;;;;;;;;;1862626;77;24876;-71
2022/11/13 14:01:04;;;;;;;6.47;5.00;;;;;;;;;;1862306;77;24197;-71
2022/11/13 14:03:33;;;;;;;5.70;5.13;;;;;;;;;;1862521;77;26877;-72
2022/11/13 14:06:16;;;;;;;5.80;5.13;;;;;;;;;;1840902;77;24520;-71
2022/11/13 14:08:44;;;;;;;5.03;4.53;;;;;;;;;;1862712;77;24174;-73
2022/11/13 14:11:20;;;;;;;5.57;5.07;;;;;;;;;;1862759;77;26252;-72
2022/11/13 14:13:50;;;;;;;5.03;4.50;;;;;;;;;;1862958;77;26326;-71
2022/11/13 14:16:18;;;;;;;5.00;4.37;;;;;;;;;;1862311;77;26299;-73
2022/11/13 14:18:47;;;;;;;7.50;5.17;;;;;;;;;;1806186;77;26272;-72
2022/11/13 14:21:18;;;;;;;6.47;4.83;;;;;;;;;;1863108;77;24189;-73
2022/11/13 14:23:48;;;;;;;6.60;4.67;;;;;;;;;;1863561;77;26237;-80
2022/11/13 14:26:18;;;;;;;5.00;4.57;;;;;;;;;;1865055;77;26330;-78
2022/11/13 14:28:49;;;;;;;4.90;4.50;;;;;;;;;;1864868;77;24212;-75
2022/11/13 14:31:18;;;;;;;6.37;4.73;;;;;;;;;;1865955;77;24192;-76
2022/11/13 14:33:48;;;;;;;6.00;5.20;;;;;;;;;;1864677;77;26792;-74
2022/11/13 14:36:18;;;;;;;5.37;4.53;;;;;;;;;;1893852;75;26750;-73
2022/11/13 14:38:48;;;;;;;5.47;4.70;;;;;;;;;;1866257;77;24197;-74